Time;durP1;ratioP1;P1;durP2;ratioP2;P2;SDS_P1;SDS_P2;PMS_P1;PMS_P2;Temp;Humidity;BMP_temperature;BMP_pressure;BME280_temperature;BME280_humidity;BME280_pressure;Samples;Min_cycle;Max_cycle;Signal;HPM_P1;HPM_P2
2022/09/15 00:00:15;;;;;;;6.22;1.83;;;;;;;;;;5033426;28;20045;-63
2022/09/15 00:02:41;;;;;;;2.25;1.40;;;;;;;;;;5033244;28;20419;-64
2022/09/15 00:05:07;;;;;;;3.38;1.30;;;;;;;;;;5031576;28;20072;-63
2022/09/15 00:07:34;;;;;;;2.00;1.40;;;;;;;;;;5027222;28;20410;-64
2022/09/15 00:10:00;;;;;;;1.70;1.33;;;;;;;;;;5030455;28;20037;-64
2022/09/15 00:12:26;;;;;;;2.58;1.45;;;;;;;;;;5031481;28;20051;-63
2022/09/15 00:14:52;;;;;;;2.83;1.63;;;;;;;;;;5033931;28;20049;-64
2022/09/15 00:17:19;;;;;;;4.00;1.40;;;;;;;;;;5023262;28;20563;-64
2022/09/15 00:19:45;;;;;;;3.38;1.48;;;;;;;;;;5031014;28;20057;-64
2022/09/15 00:22:11;;;;;;;4.32;1.52;;;;;;;;;;5031776;28;20083;-63
2022/09/15 00:24:37;;;;;;;4.25;1.67;;;;;;;;;;5032266;28;20045;-64
2022/09/15 00:27:03;;;;;;;6.10;1.80;;;;;;;;;;5024688;28;20042;-63
2022/09/15 00:29:29;;;;;;;3.92;1.52;;;;;;;;;;5030372;28;20421;-64
2022/09/15 00:31:55;;;;;;;3.15;2.05;;;;;;;;;;5013605;28;20052;-64
2022/09/15 00:34:21;;;;;;;3.95;2.00;;;;;;;;;;5033335;28;20041;-63
2022/09/15 00:36:47;;;;;;;4.90;1.75;;;;;;;;;;5026239;28;20045;-63
2022/09/15 00:39:13;;;;;;;3.30;1.80;;;;;;;;;;5029570;28;20041;-63
2022/09/15 00:41:40;;;;;;;2.08;1.67;;;;;;;;;;5030593;28;20041;-63
2022/09/15 00:44:15;;;;;;;2.38;1.80;;;;;;;;;;5031840;28;20049;-63
2022/09/15 00:46:42;;;;;;;2.90;1.83;;;;;;;;;;5030306;28;20086;-64
2022/09/15 00:49:27;;;;;;;3.85;2.00;;;;;;;;;;5025991;28;20064;-63
2022/09/15 00:51:56;;;;;;;2.75;1.70;;;;;;;;;;5029359;28;20489;-64
2022/09/15 00:54:36;;;;;;;2.78;1.95;;;;;;;;;;5029741;28;20037;-64
2022/09/15 00:57:04;;;;;;;2.42;1.92;;;;;;;;;;5031001;28;20036;-64
2022/09/15 00:59:32;;;;;;;4.18;2.20;;;;;;;;;;5032730;28;20533;-63
2022/09/15 01:02:00;;;;;;;4.70;2.10;;;;;;;;;;5031304;28;20112;-63
2022/09/15 01:04:26;;;;;;;2.63;2.00;;;;;;;;;;5030269;28;20094;-63
2022/09/15 01:06:58;;;;;;;5.85;2.20;;;;;;;;;;5032228;28;20037;-63
2022/09/15 01:09:30;;;;;;;2.67;2.00;;;;;;;;;;5027005;28;20041;-64
2022/09/15 01:11:56;;;;;;;3.75;2.25;;;;;;;;;;5030873;28;20041;-64
2022/09/15 01:14:22;;;;;;;5.00;2.53;;;;;;;;;;5031916;28;20499;-63
2022/09/15 01:16:48;;;;;;;5.70;2.72;;;;;;;;;;5031814;28;20052;-64
2022/09/15 01:19:21;;;;;;;3.45;2.75;;;;;;;;;;5029931;28;20065;-64
2022/09/15 01:21:52;;;;;;;6.15;3.10;;;;;;;;;;5030741;28;20037;-64
2022/09/15 01:24:18;;;;;;;5.00;3.13;;;;;;;;;;5031560;28;20045;-64
2022/09/15 01:26:57;;;;;;;4.90;3.22;;;;;;;;;;5031485;28;20056;-64
2022/09/15 01:29:26;;;;;;;6.00;3.58;;;;;;;;;;5029818;28;20514;-64
2022/09/15 01:34:49;;;;;;;7.15;3.75;;;;;;;;;;5025449;28;20069;-64
2022/09/15 01:37:19;;;;;;;5.22;3.60;;;;;;;;;;5029695;28;20037;-63
2022/09/15 01:39:48;;;;;;;5.97;3.22;;;;;;;;;;5030070;28;20059;-64
2022/09/15 01:42:15;;;;;;;5.65;3.08;;;;;;;;;;5029887;28;20045;-64
2022/09/15 01:44:41;;;;;;;5.38;3.25;;;;;;;;;;5030213;28;20049;-64
2022/09/15 01:47:08;;;;;;;4.93;2.58;;;;;;;;;;5030889;28;20128;-64
2022/09/15 01:49:42;;;;;;;6.57;3.08;;;;;;;;;;5023654;28;20037;-63
2022/09/15 01:52:08;;;;;;;6.07;2.50;;;;;;;;;;5031720;28;20037;-63
2022/09/15 01:54:40;;;;;;;5.35;2.25;;;;;;;;;;5028546;28;20041;-64
2022/09/15 01:57:06;;;;;;;3.58;2.10;;;;;;;;;;5028731;28;20072;-64
2022/09/15 01:59:33;;;;;;;4.75;1.83;;;;;;;;;;5028757;28;20651;-63
2022/09/15 02:02:04;;;;;;;4.68;1.95;;;;;;;;;;5029320;28;20029;-64
2022/09/15 02:04:30;;;;;;;4.55;1.80;;;;;;;;;;5028869;28;20550;-63
2022/09/15 02:07:05;;;;;;;5.05;1.80;;;;;;;;;;5031040;28;20120;-64
2022/09/15 02:09:36;;;;;;;4.28;1.85;;;;;;;;;;5030762;28;20091;-64
2022/09/15 02:12:07;;;;;;;4.32;2.60;;;;;;;;;;5030616;28;20076;-63
2022/09/15 02:14:34;;;;;;;;;;;;;;;;;;5023345;28;20041;-63
2022/09/15 02:17:01;;;;;;;4.90;2.80;;;;;;;;;;5028710;28;19971;-64
2022/09/15 02:19:33;;;;;;;5.72;3.00;;;;;;;;;;5029660;28;20088;-63
2022/09/15 02:21:59;;;;;;;7.97;2.95;;;;;;;;;;5031637;28;20091;-64
2022/09/15 02:24:42;;;;;;;4.97;3.00;;;;;;;;;;5030580;28;20038;-64
2022/09/15 02:27:12;;;;;;;4.80;3.03;;;;;;;;;;5030469;28;20483;-64
2022/09/15 02:29:39;;;;;;;6.78;3.03;;;;;;;;;;5029012;28;20041;-63
2022/09/15 02:32:06;;;;;;;3.78;2.67;;;;;;;;;;5029760;28;20050;-63
2022/09/15 02:34:34;;;;;;;4.10;2.80;;;;;;;;;;5012641;28;20042;-63
2022/09/15 02:37:03;;;;;;;6.00;2.95;;;;;;;;;;5027251;28;20034;-64
2022/09/15 02:39:31;;;;;;;3.47;2.60;;;;;;;;;;5030381;28;20045;-64
2022/09/15 02:41:59;;;;;;;4.68;2.80;;;;;;;;;;5028368;28;20045;-63
2022/09/15 02:44:25;;;;;;;5.88;3.25;;;;;;;;;;5028470;28;20053;-63
2022/09/15 02:46:52;;;;;;;3.30;2.78;;;;;;;;;;5030397;28;20091;-64
2022/09/15 02:49:18;;;;;;;6.43;2.90;;;;;;;;;;5030431;28;20046;-64
2022/09/15 02:51:45;;;;;;;3.92;3.05;;;;;;;;;;5030885;28;20041;-64
2022/09/15 02:54:11;;;;;;;6.53;3.00;;;;;;;;;;5030233;28;20132;-64
2022/09/15 02:56:37;;;;;;;4.03;2.28;;;;;;;;;;5030454;28;20041;-64
2022/09/15 02:59:03;;;;;;;5.88;2.80;;;;;;;;;;5029727;28;20037;-63
2022/09/15 03:01:33;;;;;;;4.63;2.72;;;;;;;;;;5029344;28;20038;-64
2022/09/15 03:03:59;;;;;;;4.78;2.30;;;;;;;;;;5031318;28;20172;-64
2022/09/15 03:06:28;;;;;;;5.38;2.65;;;;;;;;;;5021620;28;20057;-64
2022/09/15 03:08:56;;;;;;;6.30;2.40;;;;;;;;;;5030538;28;20042;-64
2022/09/15 03:11:23;;;;;;;8.43;2.42;;;;;;;;;;5029415;28;20122;-64
2022/09/15 03:13:52;;;;;;;8.82;2.40;;;;;;;;;;5030041;28;20805;-64
2022/09/15 03:16:18;;;;;;;5.68;2.17;;;;;;;;;;5019587;28;20410;-63
2022/09/15 03:18:45;;;;;;;6.07;2.10;;;;;;;;;;5029695;28;20033;-64
2022/09/15 03:21:12;;;;;;;7.18;2.10;;;;;;;;;;5029295;28;20112;-64
2022/09/15 03:23:39;;;;;;;6.32;2.22;;;;;;;;;;5030355;28;20525;-63
2022/09/15 03:26:05;;;;;;;6.97;1.90;;;;;;;;;;5022146;28;20044;-63
2022/09/15 03:28:32;;;;;;;9.27;1.83;;;;;;;;;;5029838;28;20479;-64
2022/09/15 03:30:58;;;;;;;5.20;1.88;;;;;;;;;;5032562;28;20069;-64
2022/09/15 03:33:24;;;;;;;7.82;1.95;;;;;;;;;;5030707;28;20048;-64
2022/09/15 03:35:51;;;;;;;4.22;1.35;;;;;;;;;;5031103;28;20041;-64
2022/09/15 03:38:17;;;;;;;3.60;1.35;;;;;;;;;;5032771;28;20037;-64
2022/09/15 03:40:44;;;;;;;4.25;1.42;;;;;;;;;;5033873;28;20403;-64
2022/09/15 03:43:10;;;;;;;6.47;1.35;;;;;;;;;;5033471;28;20100;-64
2022/09/15 03:45:37;;;;;;;6.28;1.50;;;;;;;;;;5030611;28;20092;-64
2022/09/15 03:48:06;;;;;;;4.25;1.35;;;;;;;;;;5031593;28;20110;-63
2022/09/15 03:50:35;;;;;;;4.93;1.20;;;;;;;;;;5033209;28;20462;-63
2022/09/15 03:53:01;;;;;;;5.53;1.42;;;;;;;;;;5034033;28;20042;-63
2022/09/15 03:55:28;;;;;;;4.25;1.17;;;;;;;;;;5031105;28;20049;-63
2022/09/15 03:57:54;;;;;;;5.28;1.02;;;;;;;;;;5031251;28;20545;-63
2022/09/15 04:00:20;;;;;;;6.97;1.60;;;;;;;;;;5032705;28;20116;-64
2022/09/15 04:02:47;;;;;;;4.43;1.38;;;;;;;;;;5031777;28;20513;-63
2022/09/15 04:05:13;;;;;;;4.85;1.33;;;;;;;;;;5030618;28;20045;-63
2022/09/15 04:07:39;;;;;;;5.93;1.15;;;;;;;;;;5031914;28;20570;-63
2022/09/15 04:10:06;;;;;;;4.72;1.10;;;;;;;;;;5031093;28;20052;-63
2022/09/15 04:12:33;;;;;;;5.47;1.10;;;;;;;;;;5032873;28;20099;-63
2022/09/15 04:14:59;;;;;;;2.53;0.93;;;;;;;;;;5031361;28;20065;-63
2022/09/15 04:17:25;;;;;;;4.65;1.52;;;;;;;;;;5014125;28;20041;-63
2022/09/15 04:19:51;;;;;;;7.13;1.20;;;;;;;;;;5033829;28;20091;-63
2022/09/15 04:22:18;;;;;;;6.07;1.17;;;;;;;;;;5021463;28;20048;-63
2022/09/15 04:24:44;;;;;;;3.33;1.23;;;;;;;;;;5026133;28;20045;-63
2022/09/15 04:27:10;;;;;;;3.28;1.33;;;;;;;;;;5030279;28;20033;-63
2022/09/15 04:29:36;;;;;;;4.82;1.30;;;;;;;;;;5032162;28;20092;-63
2022/09/15 04:32:02;;;;;;;5.75;1.02;;;;;;;;;;5028941;28;20510;-63
2022/09/15 04:34:28;;;;;;;6.63;1.13;;;;;;;;;;5029688;28;20538;-63
2022/09/15 04:36:54;;;;;;;5.85;1.08;;;;;;;;;;5032047;28;20042;-63
2022/09/15 04:39:20;;;;;;;3.70;1.00;;;;;;;;;;5030213;28;20042;-63
2022/09/15 04:41:46;;;;;;;3.38;1.10;;;;;;;;;;5031398;28;20034;-63
2022/09/15 04:44:12;;;;;;;5.97;1.50;;;;;;;;;;5027227;28;20034;-64
2022/09/15 04:46:38;;;;;;;6.50;1.25;;;;;;;;;;5030186;28;20041;-64
2022/09/15 04:49:04;;;;;;;6.90;1.60;;;;;;;;;;5030678;28;20049;-64
2022/09/15 04:51:30;;;;;;;4.28;1.30;;;;;;;;;;5031046;28;20052;-64
2022/09/15 04:53:57;;;;;;;5.93;1.10;;;;;;;;;;5031729;28;20041;-64
2022/09/15 04:56:24;;;;;;;5.10;1.25;;;;;;;;;;5032592;28;20480;-64
2022/09/15 04:58:52;;;;;;;7.32;1.20;;;;;;;;;;5029940;28;20102;-64
2022/09/15 05:01:22;;;;;;;7.00;1.25;;;;;;;;;;5030116;28;20072;-63
2022/09/15 05:03:48;;;;;;;2.33;1.10;;;;;;;;;;5026420;28;20045;-63
2022/09/15 05:06:15;;;;;;;6.05;1.30;;;;;;;;;;5028780;28;20053;-63
2022/09/15 05:08:41;;;;;;;5.63;1.40;;;;;;;;;;5031483;28;20068;-64
2022/09/15 05:11:09;;;;;;;6.32;1.42;;;;;;;;;;5030987;28;20509;-64
2022/09/15 05:13:35;;;;;;;4.90;1.23;;;;;;;;;;5029174;28;20042;-63
2022/09/15 05:16:20;;;;;;;5.90;1.40;;;;;;;;;;5031740;28;20041;-63
2022/09/15 05:18:47;;;;;;;6.57;1.40;;;;;;;;;;5022941;28;20088;-63
2022/09/15 05:21:15;;;;;;;7.72;1.42;;;;;;;;;;5029686;28;20038;-64
2022/09/15 05:23:41;;;;;;;5.05;1.70;;;;;;;;;;5030103;28;20041;-64
2022/09/15 05:26:09;;;;;;;6.47;1.55;;;;;;;;;;5022843;28;20037;-64
2022/09/15 05:28:36;;;;;;;6.55;1.70;;;;;;;;;;5030011;28;20045;-64
2022/09/15 05:31:02;;;;;;;3.40;1.30;;;;;;;;;;5030281;28;20041;-64
2022/09/15 05:33:28;;;;;;;3.80;1.40;;;;;;;;;;5030011;28;20046;-64
2022/09/15 05:35:55;;;;;;;5.95;1.75;;;;;;;;;;5030638;28;20044;-64
2022/09/15 05:38:22;;;;;;;5.60;1.48;;;;;;;;;;5031223;28;20041;-63
2022/09/15 05:40:48;;;;;;;3.83;1.15;;;;;;;;;;5030382;28;20100;-63
2022/09/15 05:43:15;;;;;;;3.90;1.15;;;;;;;;;;5044050;22;20068;-61
2022/09/15 05:45:41;;;;;;;5.93;1.17;;;;;;;;;;5047467;28;20045;-61
2022/09/15 05:48:08;;;;;;;6.90;1.10;;;;;;;;;;5049898;28;20075;-61
2022/09/15 05:50:34;;;;;;;6.75;1.20;;;;;;;;;;5045704;28;20046;-61
2022/09/15 05:53:00;;;;;;;5.65;1.27;;;;;;;;;;5048609;28;20045;-61
2022/09/15 05:55:27;;;;;;;5.20;1.10;;;;;;;;;;5047546;28;20040;-62
2022/09/15 05:57:53;;;;;;;5.63;1.15;;;;;;;;;;5045325;28;20045;-62
2022/09/15 06:00:19;;;;;;;7.65;1.75;;;;;;;;;;5048069;28;20039;-61
2022/09/15 06:02:45;;;;;;;3.80;1.25;;;;;;;;;;5045117;28;20040;-62
2022/09/15 06:05:11;;;;;;;10.27;1.40;;;;;;;;;;5051362;28;20045;-62
2022/09/15 06:07:38;;;;;;;7.60;1.00;;;;;;;;;;5048186;28;20247;-62
2022/09/15 06:10:04;;;;;;;2.83;1.08;;;;;;;;;;5045427;28;20044;-62
2022/09/15 06:12:30;;;;;;;5.25;1.20;;;;;;;;;;5045085;28;20045;-62
2022/09/15 06:14:56;;;;;;;8.23;1.30;;;;;;;;;;5050036;28;20048;-62
2022/09/15 06:17:22;;;;;;;5.13;1.08;;;;;;;;;;5051976;28;20045;-62
2022/09/15 06:19:48;;;;;;;5.22;1.02;;;;;;;;;;5047445;28;20044;-62
2022/09/15 06:22:14;;;;;;;9.35;1.52;;;;;;;;;;5050776;28;20037;-62
2022/09/15 06:24:40;;;;;;;5.93;1.00;;;;;;;;;;5051137;28;20045;-62
2022/09/15 06:27:06;;;;;;;5.88;1.00;;;;;;;;;;5046018;28;20044;-62
2022/09/15 06:29:32;;;;;;;6.78;1.20;;;;;;;;;;5041371;28;20052;-62
2022/09/15 06:32:01;;;;;;;5.05;1.20;;;;;;;;;;5035639;28;20041;-62
2022/09/15 06:34:31;;;;;;;4.30;1.00;;;;;;;;;;5042041;28;20045;-62
2022/09/15 06:36:58;;;;;;;7.07;1.30;;;;;;;;;;5050300;28;20560;-62
2022/09/15 06:39:24;;;;;;;6.55;1.20;;;;;;;;;;5049254;28;20033;-62
2022/09/15 06:41:50;;;;;;;5.57;1.13;;;;;;;;;;5050305;28;20441;-62
2022/09/15 06:44:16;;;;;;;7.72;1.17;;;;;;;;;;5049341;28;20449;-62
2022/09/15 06:46:42;;;;;;;7.50;1.20;;;;;;;;;;5041448;28;20082;-62
2022/09/15 06:49:08;;;;;;;9.18;1.17;;;;;;;;;;5049813;28;20042;-62
2022/09/15 06:51:35;;;;;;;6.07;1.15;;;;;;;;;;5049779;28;20051;-62
2022/09/15 06:54:04;;;;;;;4.10;1.00;;;;;;;;;;5049530;28;20083;-62
2022/09/15 06:56:31;;;;;;;6.70;1.60;;;;;;;;;;5050068;28;20037;-62
2022/09/15 06:58:58;;;;;;;6.13;1.33;;;;;;;;;;5049476;28;20033;-62
2022/09/15 07:01:28;;;;;;;3.67;1.13;;;;;;;;;;5047827;28;20514;-62
2022/09/15 07:03:55;;;;;;;4.57;1.03;;;;;;;;;;5051980;28;20067;-62
2022/09/15 07:06:21;;;;;;;6.88;1.17;;;;;;;;;;5052951;28;20123;-62
2022/09/15 07:08:48;;;;;;;6.57;1.17;;;;;;;;;;5043198;28;20086;-62
2022/09/15 07:11:15;;;;;;;10.13;1.08;;;;;;;;;;5050463;28;20561;-62
2022/09/15 07:13:41;;;;;;;7.18;1.08;;;;;;;;;;5053557;28;20510;-62
2022/09/15 07:16:10;;;;;;;6.57;1.35;;;;;;;;;;5051847;28;20037;-62
2022/09/15 07:18:36;;;;;;;7.63;1.48;;;;;;;;;;5050297;28;20043;-62
2022/09/15 07:21:06;;;;;;;7.25;1.40;;;;;;;;;;5052702;28;20144;-62
2022/09/15 07:23:33;;;;;;;4.97;1.13;;;;;;;;;;5052885;28;20047;-61
2022/09/15 07:26:10;;;;;;;5.78;1.15;;;;;;;;;;5053154;28;20044;-62
2022/09/15 07:28:36;;;;;;;9.90;1.75;;;;;;;;;;5047520;28;20416;-62
2022/09/15 07:31:03;;;;;;;8.15;1.30;;;;;;;;;;5050696;28;20461;-62
2022/09/15 07:33:29;;;;;;;6.32;1.23;;;;;;;;;;5053208;28;20564;-61
2022/09/15 07:35:55;;;;;;;5.15;1.10;;;;;;;;;;5054034;28;20044;-62
2022/09/15 07:38:21;;;;;;;5.72;1.20;;;;;;;;;;5051322;28;20048;-62
2022/09/15 07:40:48;;;;;;;4.07;1.10;;;;;;;;;;5050997;28;20041;-62
2022/09/15 07:43:14;;;;;;;9.15;1.40;;;;;;;;;;5051598;28;20045;-62
2022/09/15 07:45:40;;;;;;;8.50;1.30;;;;;;;;;;5054029;28;20049;-62
2022/09/15 07:48:06;;;;;;;2.65;1.02;;;;;;;;;;5052605;28;20080;-62
2022/09/15 07:50:32;;;;;;;5.80;1.27;;;;;;;;;;5049965;28;20076;-62
2022/09/15 07:52:58;;;;;;;6.40;1.42;;;;;;;;;;5054565;28;20401;-62
2022/09/15 07:55:24;;;;;;;4.00;1.00;;;;;;;;;;5051708;28;20033;-62
2022/09/15 07:57:57;;;;;;;3.92;1.00;;;;;;;;;;5051465;28;20483;-62
2022/09/15 08:00:23;;;;;;;4.72;0.95;;;;;;;;;;5046345;28;20517;-62
2022/09/15 08:02:49;;;;;;;4.28;1.05;;;;;;;;;;5051532;28;20120;-62
2022/09/15 08:05:15;;;;;;;8.20;1.50;;;;;;;;;;5050019;28;20115;-61
2022/09/15 08:07:41;;;;;;;5.50;1.00;;;;;;;;;;5043625;28;20062;-61
2022/09/15 08:10:08;;;;;;;6.80;1.55;;;;;;;;;;5049817;28;20091;-61
2022/09/15 08:12:35;;;;;;;6.72;1.25;;;;;;;;;;5050735;28;20045;-61
2022/09/15 08:15:01;;;;;;;3.58;0.82;;;;;;;;;;5036339;28;20037;-61
2022/09/15 08:17:27;;;;;;;3.95;0.63;;;;;;;;;;5034507;28;20040;-62
2022/09/15 08:19:53;;;;;;;6.25;1.08;;;;;;;;;;5050568;28;20041;-62
2022/09/15 08:22:19;;;;;;;4.28;0.90;;;;;;;;;;5051461;28;20116;-61
2022/09/15 08:24:45;;;;;;;5.45;1.15;;;;;;;;;;5053289;28;20491;-62
2022/09/15 08:27:11;;;;;;;5.70;0.73;;;;;;;;;;5052673;28;20605;-62
2022/09/15 08:29:37;;;;;;;4.10;1.38;;;;;;;;;;5051670;28;20057;-62
2022/09/15 08:32:03;;;;;;;3.85;0.80;;;;;;;;;;5051899;28;20049;-62
2022/09/15 08:34:29;;;;;;;4.07;0.75;;;;;;;;;;5053522;28;20044;-61
2022/09/15 08:36:55;;;;;;;5.03;1.20;;;;;;;;;;5049407;28;20079;-61
2022/09/15 08:39:21;;;;;;;5.20;0.90;;;;;;;;;;5045125;28;20041;-62
2022/09/15 08:41:49;;;;;;;18.35;2.15;;;;;;;;;;5043245;28;20498;-63
2022/09/15 08:44:33;;;;;;;7.22;1.08;;;;;;;;;;5041002;28;20091;-63
2022/09/15 08:46:59;;;;;;;64.57;8.02;;;;;;;;;;5051352;28;20041;-62
2022/09/15 08:49:31;;;;;;;9.55;1.63;;;;;;;;;;5049591;28;20041;-62
2022/09/15 08:51:59;;;;;;;9.27;1.25;;;;;;;;;;5050555;28;20126;-63
2022/09/15 08:54:27;;;;;;;8.07;1.20;;;;;;;;;;5049948;28;20056;-66
2022/09/15 08:56:54;;;;;;;5.50;1.02;;;;;;;;;;5047076;28;20033;-66
2022/09/15 08:59:21;;;;;;;5.40;1.20;;;;;;;;;;5050800;28;20033;-66
2022/09/15 09:01:52;;;;;;;6.90;1.20;;;;;;;;;;5050194;28;20075;-66
2022/09/15 09:04:27;;;;;;;6.03;0.90;;;;;;;;;;5049816;28;20090;-65
2022/09/15 09:06:53;;;;;;;6.28;0.75;;;;;;;;;;5050988;28;20048;-66
2022/09/15 09:09:29;;;;;;;5.40;1.08;;;;;;;;;;5049233;28;20128;-66
2022/09/15 09:12:05;;;;;;;5.53;0.95;;;;;;;;;;5052028;28;20367;-66
2022/09/15 09:14:46;;;;;;;5.13;0.90;;;;;;;;;;5052269;28;20051;-66
2022/09/15 09:17:33;;;;;;;6.20;1.17;;;;;;;;;;5052170;28;20066;-66
2022/09/15 09:20:17;;;;;;;11.77;1.45;;;;;;;;;;5012701;28;20044;-66
2022/09/15 09:22:45;;;;;;;6.38;1.00;;;;;;;;;;5047421;28;20452;-65
2022/09/15 09:25:13;;;;;;;5.15;1.05;;;;;;;;;;5051719;28;20090;-66
2022/09/15 09:27:39;;;;;;;5.68;0.98;;;;;;;;;;5044318;28;20041;-66
2022/09/15 09:30:22;;;;;;;6.35;0.90;;;;;;;;;;5043415;28;20087;-66
2022/09/15 09:32:51;;;;;;;2.72;0.77;;;;;;;;;;5046772;28;20043;-66
2022/09/15 09:35:40;;;;;;;4.55;1.00;;;;;;;;;;5049463;28;20037;-66
2022/09/15 09:38:07;;;;;;;6.68;0.90;;;;;;;;;;5039851;28;20045;-66
2022/09/15 09:40:39;;;;;;;2.85;0.77;;;;;;;;;;5043560;28;20042;-66
2022/09/15 09:43:06;;;;;;;5.72;1.00;;;;;;;;;;5047237;28;20455;-66
2022/09/15 09:45:32;;;;;;;3.33;0.60;;;;;;;;;;5043792;28;20037;-66
2022/09/15 09:48:00;;;;;;;5.95;1.00;;;;;;;;;;5050313;28;20048;-66
2022/09/15 09:50:34;;;;;;;4.00;1.08;;;;;;;;;;5047784;28;20082;-66
2022/09/15 09:53:10;;;;;;;5.28;0.93;;;;;;;;;;5049211;28;20037;-66
2022/09/15 09:55:36;;;;;;;5.13;0.70;;;;;;;;;;5040139;28;20086;-66
2022/09/15 09:58:14;;;;;;;4.80;1.02;;;;;;;;;;5049544;28;20041;-66
2022/09/15 10:00:41;;;;;;;5.93;0.90;;;;;;;;;;5044743;28;20067;-66
2022/09/15 10:03:19;;;;;;;5.35;0.80;;;;;;;;;;5051197;28;20119;-66
2022/09/15 10:05:45;;;;;;;3.03;0.70;;;;;;;;;;5051449;28;20045;-66
2022/09/15 10:08:19;;;;;;;3.90;0.90;;;;;;;;;;5049793;28;20455;-66
2022/09/15 10:10:59;;;;;;;3.05;0.88;;;;;;;;;;5050786;28;20076;-66
2022/09/15 10:13:25;;;;;;;3.92;0.90;;;;;;;;;;5051561;28;20160;-66
2022/09/15 10:15:53;;;;;;;4.75;1.00;;;;;;;;;;5046624;28;20402;-66
2022/09/15 10:18:30;;;;;;;3.28;0.70;;;;;;;;;;5049579;28;20037;-66
2022/09/15 10:20:57;;;;;;;3.50;0.80;;;;;;;;;;5050879;28;20494;-66
2022/09/15 10:23:24;;;;;;;4.78;0.88;;;;;;;;;;5050566;28;20043;-67
2022/09/15 10:25:51;;;;;;;6.70;1.02;;;;;;;;;;5046438;28;20055;-66
2022/09/15 10:28:20;;;;;;;6.07;1.20;;;;;;;;;;5048843;28;20044;-66
2022/09/15 10:31:05;;;;;;;3.47;0.75;;;;;;;;;;5049745;28;20048;-66
2022/09/15 10:33:33;;;;;;;3.35;0.80;;;;;;;;;;5050235;28;20049;-66
2022/09/15 10:36:12;;;;;;;7.03;0.95;;;;;;;;;;5050540;28;20036;-67
2022/09/15 10:38:43;;;;;;;5.55;0.90;;;;;;;;;;5049497;28;20048;-67
2022/09/15 10:41:09;;;;;;;5.43;0.60;;;;;;;;;;5051136;28;20040;-66
2022/09/15 10:43:38;;;;;;;2.45;0.60;;;;;;;;;;5049115;28;20045;-66
2022/09/15 10:46:24;;;;;;;3.83;0.90;;;;;;;;;;5043727;28;20044;-67
2022/09/15 10:48:56;;;;;;;3.47;0.63;;;;;;;;;;5048141;28;20041;-66
2022/09/15 10:51:55;;;;;;;3.08;0.70;;;;;;;;;;5045425;28;20041;-67
2022/09/15 10:54:40;;;;;;;6.43;0.60;;;;;;;;;;5015579;28;20084;-66
2022/09/15 10:57:29;;;;;;;2.13;0.60;;;;;;;;;;5048933;28;20045;-67
2022/09/15 11:00:09;;;;;;;2.00;0.68;;;;;;;;;;5015751;28;20045;-66
2022/09/15 11:02:57;;;;;;;3.88;0.50;;;;;;;;;;5043067;28;20051;-66
2022/09/15 11:05:38;;;;;;;2.55;0.68;;;;;;;;;;5049286;28;20037;-67
2022/09/15 11:08:04;;;;;;;;;;;;;;;;;;5049285;28;20453;-66
2022/09/15 11:10:39;;;;;;;2.65;0.60;;;;;;;;;;5050264;28;19917;-67
2022/09/15 11:13:14;;;;;;;3.75;0.70;;;;;;;;;;5049739;28;20056;-66
2022/09/15 11:15:40;;;;;;;4.35;0.73;;;;;;;;;;5043160;28;20112;-66
2022/09/15 11:18:18;;;;;;;1.63;0.60;;;;;;;;;;5046926;28;20125;-66
2022/09/15 11:20:55;;;;;;;5.35;0.60;;;;;;;;;;5049791;28;20040;-66
2022/09/15 11:23:28;;;;;;;2.83;0.65;;;;;;;;;;5049542;28;20041;-66
2022/09/15 11:25:57;;;;;;;4.32;0.90;;;;;;;;;;5050569;28;20118;-66
2022/09/15 11:28:30;;;;;;;3.80;0.77;;;;;;;;;;5047548;28;20044;-66
2022/09/15 11:31:01;;;;;;;4.00;0.95;;;;;;;;;;5050951;28;20041;-66
2022/09/15 11:33:57;;;;;;;5.32;0.77;;;;;;;;;;5047385;28;20423;-66
2022/09/15 11:36:27;;;;;;;2.92;0.77;;;;;;;;;;5039846;28;20066;-66
2022/09/15 11:39:12;;;;;;;5.50;0.85;;;;;;;;;;5049345;28;20086;-66
2022/09/15 11:41:39;;;;;;;3.28;0.68;;;;;;;;;;5029561;28;20402;-66
2022/09/15 11:44:18;;;;;;;4.22;0.90;;;;;;;;;;5039185;28;20052;-66
2022/09/15 11:46:47;;;;;;;4.53;0.88;;;;;;;;;;5076893;22;20445;-64
2022/09/15 11:49:15;;;;;;;7.70;0.90;;;;;;;;;;5063691;28;20124;-64
2022/09/15 11:51:52;;;;;;;3.58;0.73;;;;;;;;;;5068298;28;20049;-64
2022/09/15 11:54:25;;;;;;;4.75;1.02;;;;;;;;;;5071667;28;20540;-64
2022/09/15 11:56:51;;;;;;;3.08;0.90;;;;;;;;;;5072063;28;20494;-64
2022/09/15 11:59:36;;;;;;;6.03;1.00;;;;;;;;;;5064172;28;20099;-64
2022/09/15 12:02:02;;;;;;;3.78;0.90;;;;;;;;;;5071024;28;20111;-64
2022/09/15 12:04:30;;;;;;;4.22;0.90;;;;;;;;;;5072709;28;20056;-64
2022/09/15 12:07:01;;;;;;;2.83;0.70;;;;;;;;;;5070822;28;20405;-64
2022/09/15 12:09:28;;;;;;;1.90;0.50;;;;;;;;;;5072088;28;20072;-64
2022/09/15 12:11:57;;;;;;;6.35;1.17;;;;;;;;;;5073143;28;20071;-64
2022/09/15 12:14:26;;;;;;;2.60;0.77;;;;;;;;;;5071282;28;20448;-64
2022/09/15 12:16:52;;;;;;;2.67;0.75;;;;;;;;;;5072515;28;20555;-64
2022/09/15 12:19:37;;;;;;;4.00;0.82;;;;;;;;;;5071920;28;20032;-65
2022/09/15 12:22:03;;;;;;;4.85;0.82;;;;;;;;;;5072604;28;20028;-65
2022/09/15 12:24:44;;;;;;;5.30;1.02;;;;;;;;;;5071278;28;20490;-65
2022/09/15 12:27:15;;;;;;;2.83;0.90;;;;;;;;;;5072123;28;20494;-65
2022/09/15 12:29:47;;;;;;;1.90;0.88;;;;;;;;;;5073063;28;20076;-65
2022/09/15 12:32:32;;;;;;;3.65;1.02;;;;;;;;;;5070575;28;20036;-65
2022/09/15 12:34:57;;;;;;;4.47;0.80;;;;;;;;;;5071215;28;20063;-65
2022/09/15 12:37:25;;;;;;;2.42;0.68;;;;;;;;;;5072851;28;20032;-65
2022/09/15 12:39:52;;;;;;;1.27;0.40;;;;;;;;;;5070122;28;20036;-65
2022/09/15 12:42:22;;;;;;;2.72;0.52;;;;;;;;;;5072608;28;20040;-65
2022/09/15 12:45:07;;;;;;;3.42;1.00;;;;;;;;;;5070764;28;20041;-65
2022/09/15 12:47:35;;;;;;;3.22;0.47;;;;;;;;;;5065450;28;20090;-65
2022/09/15 12:50:04;;;;;;;2.38;0.70;;;;;;;;;;5069858;28;20052;-65
2022/09/15 12:52:30;;;;;;;3.50;0.80;;;;;;;;;;5071719;28;20049;-65
2022/09/15 12:55:00;;;;;;;3.53;0.85;;;;;;;;;;5069180;28;20036;-65
2022/09/15 12:57:28;;;;;;;1.60;0.50;;;;;;;;;;5071738;28;20040;-65
2022/09/15 13:00:16;;;;;;;1.95;0.63;;;;;;;;;;5071209;28;20481;-65
2022/09/15 13:02:43;;;;;;;0.70;0.32;;;;;;;;;;5062807;28;20047;-65
2022/09/15 13:05:10;;;;;;;3.75;0.70;;;;;;;;;;5070956;28;20040;-65
2022/09/15 13:07:51;;;;;;;4.47;0.50;;;;;;;;;;5070729;28;20048;-65
2022/09/15 13:10:17;;;;;;;;;;;;;;;;;;5073095;28;20086;-65
2022/09/15 13:12:49;;;;;;;3.15;0.40;;;;;;;;;;5070680;28;19924;-65
2022/09/15 13:15:17;;;;;;;1.45;0.40;;;;;;;;;;5071199;28;20283;-64
2022/09/15 13:17:44;;;;;;;3.72;0.60;;;;;;;;;;5072702;28;20040;-64
2022/09/15 13:20:15;;;;;;;1.73;0.47;;;;;;;;;;5071929;28;20494;-65
2022/09/15 13:22:41;;;;;;;;;;;;;;;;;;5069603;28;20047;-65
2022/09/15 13:25:12;;;;;;;2.03;0.60;;;;;;;;;;5072167;28;19920;-65
2022/09/15 13:27:41;;;;;;;1.73;0.60;;;;;;;;;;5069671;28;20048;-64
2022/09/15 13:30:07;;;;;;;2.17;0.60;;;;;;;;;;5072532;28;20044;-65
2022/09/15 13:32:44;;;;;;;2.78;0.70;;;;;;;;;;5071051;28;20123;-65
2022/09/15 13:35:28;;;;;;;2.95;0.70;;;;;;;;;;5070387;28;20036;-65
2022/09/15 13:38:05;;;;;;;3.13;0.52;;;;;;;;;;5070199;28;20041;-65
2022/09/15 13:40:39;;;;;;;2.38;0.70;;;;;;;;;;5071585;28;20375;-65
2022/09/15 13:43:08;;;;;;;1.50;0.50;;;;;;;;;;5070134;28;20119;-65
2022/09/15 13:45:43;;;;;;;6.95;0.70;;;;;;;;;;5071829;28;20505;-65
2022/09/15 13:48:09;;;;;;;4.72;0.50;;;;;;;;;;5071204;28;20032;-65
2022/09/15 13:50:39;;;;;;;2.55;0.52;;;;;;;;;;5070388;28;20040;-65
2022/09/15 13:53:24;;;;;;;1.73;0.50;;;;;;;;;;5069309;28;20052;-65
2022/09/15 13:55:53;;;;;;;2.30;0.65;;;;;;;;;;5070219;28;20040;-65
2022/09/15 13:58:20;;;;;;;3.40;0.70;;;;;;;;;;5070778;28;20044;-64
2022/09/15 14:01:03;;;;;;;2.60;0.60;;;;;;;;;;5070784;28;20513;-65
2022/09/15 14:03:40;;;;;;;3.40;0.80;;;;;;;;;;5070579;28;20299;-65
2022/09/15 14:06:14;;;;;;;3.63;0.82;;;;;;;;;;5070793;28;20044;-65
2022/09/15 14:08:41;;;;;;;4.45;0.93;;;;;;;;;;5069537;28;20561;-65
2022/09/15 14:11:09;;;;;;;5.38;0.82;;;;;;;;;;5071211;28;20036;-65
2022/09/15 14:13:36;;;;;;;3.03;0.60;;;;;;;;;;5069883;28;20394;-65
2022/09/15 14:16:07;;;;;;;1.77;0.60;;;;;;;;;;5071666;28;20064;-65
2022/09/15 14:18:33;;;;;;;;;;;;;;;;;;5070926;28;20398;-65
2022/09/15 14:21:04;;;;;;;2.00;0.68;;;;;;;;;;5064873;28;19916;-65
2022/09/15 14:23:30;;;;;;;4.25;0.70;;;;;;;;;;5063011;28;20051;-65
2022/09/15 14:25:59;;;;;;;1.90;0.70;;;;;;;;;;5069916;28;20041;-65
2022/09/15 14:28:27;;;;;;;4.05;0.68;;;;;;;;;;5071528;28;20048;-65
2022/09/15 14:30:53;;;;;;;3.13;0.50;;;;;;;;;;5069565;28;20040;-65
2022/09/15 14:33:19;;;;;;;2.10;0.70;;;;;;;;;;5067818;28;20431;-65
2022/09/15 14:35:45;;;;;;;3.80;0.60;;;;;;;;;;5063088;28;20128;-65
2022/09/15 14:38:20;;;;;;;7.15;1.48;;;;;;;;;;5068649;28;20393;-65
2022/09/15 14:40:50;;;;;;;1.25;0.50;;;;;;;;;;5062452;28;20067;-65
2022/09/15 14:43:26;;;;;;;3.83;0.63;;;;;;;;;;5071322;28;20036;-65
2022/09/15 14:45:53;;;;;;;3.20;0.60;;;;;;;;;;5070174;28;20051;-64
2022/09/15 14:48:25;;;;;;;5.45;0.88;;;;;;;;;;5069793;28;20041;-65
2022/09/15 14:51:01;;;;;;;3.20;0.75;;;;;;;;;;5063688;28;20041;-65
2022/09/15 14:53:29;;;;;;;2.28;0.68;;;;;;;;;;5067658;28;20101;-65
2022/09/15 14:55:58;;;;;;;4.25;0.80;;;;;;;;;;5068257;28;20154;-65
2022/09/15 14:58:28;;;;;;;1.77;0.70;;;;;;;;;;5066964;28;20039;-65